Airfield :
LOGIN :

Register | Disclaimer

   EN    FR    IT 

 










Legend :    VFR   Marginal VFR   IFR   Intensive IFR   Very Intensive IFR
Visi :
Ceiling :
>= 8 km
>= 3000ft
5 to 8 km
1000 to 3000 ft
1500m to 5 km
500 to 1000 ft
800 to 1500m
200 to 500 ft
< 800m
< 200 ft
Symbols :   Thunderstorms  Fog  Heavy snow  Heavy precipitations  Wind > 20 kt
SIGMETs :     Misc.  Thunderstorms  Icing  Turbulence  Mountain Waves  Volcanic Ashes







- Airport Elevation : 1260 ft
- IATA code : LDE
- Download approach charts


LFBT - Tarbes / Ossun

CURRENT METAR :
  • 211930Z AUTO 36002KT 9999 FEW040 BKN052 OVC062 12/09 Q1011 NOSIG

EXPIRED METARs :
  • 211900Z AUTO 03003KT 360V060 9999 OVC054 13/08 Q1011 NOSIG
  • 211830Z AUTO 03004KT 9999 OVC050 13/09 Q1011 NOSIG
  • 211800Z AUTO 36004KT 9999 OVC044 12/10 Q1011 NOSIG
  • 211730Z AUTO 36004KT 9999 OVC043 13/10 Q1012 NOSIG
  • 211700Z AUTO 01005KT 9999 OVC041 13/10 Q1012 TEMPO 4000 -RA BKN012

TAF TAF LFBT
Valid from the 21 at 18:00 until the 22 at 18:00 UTC


211700Z 2118/2218 09008KT 9999 BKN035
BECMG 2118/2120 VRB02KT CAVOK
PROB40
TEMPO 2205/2209 BKN014
BECMG 2209/2211 06005KT
No reported NOTAMs for that airfield.



MET'MAP, your aeronautical weather chart ! - Copyright ORBIFLY December 2007 - Disclaimer

ORBIFLY MET'MAP TEAM :

Programming & Development : Alexandra Zaïnal
Concept & Development : Baudouin d'Aumeries
Co-Development & Prog : Marc-Olivier Méhu
Technical & hardware support : Manuel Goepfert

Contact : metmap@orbifly.com




SOURCES & CREDITS :

   NOAA